sensor_id;sensor_type;location;lat;lon;timestamp;P1;durP1;ratioP1;P2;durP2;ratioP2
68910;SDS011;55953;51.650;-0.522;2023-04-06T00:00:03;14.60;;;8.30;;
68910;SDS011;55953;51.650;-0.522;2023-04-06T00:02:55;15.40;;;8.00;;
68910;SDS011;55953;51.650;-0.522;2023-04-06T00:05:24;14.40;;;7.80;;
68910;SDS011;55953;51.650;-0.522;2023-04-06T00:07:51;13.60;;;7.60;;
68910;SDS011;55953;51.650;-0.522;2023-04-06T00:10:21;15.60;;;7.70;;
68910;SDS011;55953;51.650;-0.522;2023-04-06T00:12:49;13.40;;;7.40;;
68910;SDS011;55953;51.650;-0.522;2023-04-06T00:15:17;12.10;;;6.70;;
68910;SDS011;55953;51.650;-0.522;2023-04-06T00:17:45;11.10;;;6.40;;
68910;SDS011;55953;51.650;-0.522;2023-04-06T00:20:13;11.60;;;6.80;;
68910;SDS011;55953;51.650;-0.522;2023-04-06T00:22:41;10.70;;;6.50;;
68910;SDS011;55953;51.650;-0.522;2023-04-06T00:25:09;11.00;;;6.20;;
68910;SDS011;55953;51.650;-0.522;2023-04-06T00:27:38;11.60;;;6.40;;
68910;SDS011;55953;51.650;-0.522;2023-04-06T00:30:07;9.70;;;5.90;;
68910;SDS011;55953;51.650;-0.522;2023-04-06T00:32:35;12.10;;;6.50;;
68910;SDS011;55953;51.650;-0.522;2023-04-06T00:35:04;10.60;;;6.00;;
68910;SDS011;55953;51.650;-0.522;2023-04-06T00:37:33;9.30;;;5.50;;
68910;SDS011;55953;51.650;-0.522;2023-04-06T00:40:01;10.30;;;5.60;;
68910;SDS011;55953;51.650;-0.522;2023-04-06T00:42:29;9.80;;;6.10;;
68910;SDS011;55953;51.650;-0.522;2023-04-06T00:44:59;10.00;;;6.30;;
68910;SDS011;55953;51.650;-0.522;2023-04-06T00:47:28;9.10;;;5.20;;
68910;SDS011;55953;51.650;-0.522;2023-04-06T00:49:56;10.50;;;5.90;;
68910;SDS011;55953;51.650;-0.522;2023-04-06T00:52:24;9.00;;;5.10;;
68910;SDS011;55953;51.650;-0.522;2023-04-06T00:54:53;8.40;;;5.30;;
68910;SDS011;55953;51.650;-0.522;2023-04-06T00:57:22;9.40;;;5.00;;
68910;SDS011;55953;51.650;-0.522;2023-04-06T00:59:54;9.50;;;6.00;;
68910;SDS011;55953;51.650;-0.522;2023-04-06T01:02:23;10.30;;;5.80;;
68910;SDS011;55953;51.650;-0.522;2023-04-06T01:07:33;10.00;;;5.60;;
68910;SDS011;55953;51.650;-0.522;2023-04-06T01:10:06;9.10;;;5.50;;
68910;SDS011;55953;51.650;-0.522;2023-04-06T01:12:35;8.80;;;5.10;;
68910;SDS011;55953;51.650;-0.522;2023-04-06T01:17:35;8.30;;;5.00;;
68910;SDS011;55953;51.650;-0.522;2023-04-06T01:20:08;11.20;;;5.90;;
68910;SDS011;55953;51.650;-0.522;2023-04-06T01:22:37;8.00;;;5.10;;
68910;SDS011;55953;51.650;-0.522;2023-04-06T01:25:06;7.90;;;5.40;;
68910;SDS011;55953;51.650;-0.522;2023-04-06T01:27:42;9.00;;;5.00;;
68910;SDS011;55953;51.650;-0.522;2023-04-06T01:30:12;9.10;;;4.90;;
68910;SDS011;55953;51.650;-0.522;2023-04-06T01:32:47;8.20;;;5.10;;
68910;SDS011;55953;51.650;-0.522;2023-04-06T01:35:18;8.80;;;5.30;;
68910;SDS011;55953;51.650;-0.522;2023-04-06T01:37:59;7.50;;;4.80;;
68910;SDS011;55953;51.650;-0.522;2023-04-06T01:40:31;9.10;;;5.50;;
68910;SDS011;55953;51.650;-0.522;2023-04-06T01:42:59;9.10;;;5.60;;
68910;SDS011;55953;51.650;-0.522;2023-04-06T01:45:34;7.50;;;5.00;;
68910;SDS011;55953;51.650;-0.522;2023-04-06T01:48:11;9.00;;;5.80;;
68910;SDS011;55953;51.650;-0.522;2023-04-06T01:50:38;8.70;;;5.30;;
68910;SDS011;55953;51.650;-0.522;2023-04-06T01:53:08;8.70;;;5.60;;
68910;SDS011;55953;51.650;-0.522;2023-04-06T01:55:36;7.90;;;5.40;;
68910;SDS011;55953;51.650;-0.522;2023-04-06T01:58:18;8.00;;;4.80;;
68910;SDS011;55953;51.650;-0.522;2023-04-06T02:00:47;7.20;;;4.60;;
68910;SDS011;55953;51.650;-0.522;2023-04-06T02:03:15;6.60;;;4.30;;
68910;SDS011;55953;51.650;-0.522;2023-04-06T02:05:43;6.40;;;4.40;;
68910;SDS011;55953;51.650;-0.522;2023-04-06T02:08:18;5.40;;;3.60;;
68910;SDS011;55953;51.650;-0.522;2023-04-06T02:10:46;5.60;;;3.50;;
68910;SDS011;55953;51.650;-0.522;2023-04-06T02:13:22;6.00;;;3.60;;
68910;SDS011;55953;51.650;-0.522;2023-04-06T02:15:52;5.90;;;3.50;;
68910;SDS011;55953;51.650;-0.522;2023-04-06T02:18:20;6.50;;;3.80;;
68910;SDS011;55953;51.650;-0.522;2023-04-06T02:20:48;6.60;;;3.90;;
68910;SDS011;55953;51.650;-0.522;2023-04-06T02:23:16;6.30;;;3.70;;
68910;SDS011;55953;51.650;-0.522;2023-04-06T02:25:44;4.90;;;3.60;;
68910;SDS011;55953;51.650;-0.522;2023-04-06T02:28:12;5.90;;;3.60;;
68910;SDS011;55953;51.650;-0.522;2023-04-06T02:30:40;4.60;;;3.30;;
68910;SDS011;55953;51.650;-0.522;2023-04-06T02:33:08;4.60;;;2.90;;
68910;SDS011;55953;51.650;-0.522;2023-04-06T02:35:46;4.30;;;2.80;;
68910;SDS011;55953;51.650;-0.522;2023-04-06T02:38:14;5.00;;;3.10;;
68910;SDS011;55953;51.650;-0.522;2023-04-06T02:40:42;5.90;;;3.50;;
68910;SDS011;55953;51.650;-0.522;2023-04-06T02:43:19;5.70;;;3.60;;
68910;SDS011;55953;51.650;-0.522;2023-04-06T02:45:49;6.80;;;4.10;;
68910;SDS011;55953;51.650;-0.522;2023-04-06T02:48:18;5.90;;;3.70;;
68910;SDS011;55953;51.650;-0.522;2023-04-06T02:50:45;6.80;;;4.20;;
68910;SDS011;55953;51.650;-0.522;2023-04-06T02:53:13;5.70;;;4.00;;
68910;SDS011;55953;51.650;-0.522;2023-04-06T02:55:41;6.00;;;4.00;;
68910;SDS011;55953;51.650;-0.522;2023-04-06T02:58:09;6.50;;;4.30;;
68910;SDS011;55953;51.650;-0.522;2023-04-06T03:00:44;6.30;;;4.10;;
68910;SDS011;55953;51.650;-0.522;2023-04-06T03:03:12;6.00;;;4.00;;
68910;SDS011;55953;51.650;-0.522;2023-04-06T03:05:40;5.00;;;3.50;;
68910;SDS011;55953;51.650;-0.522;2023-04-06T03:08:08;6.30;;;3.90;;
68910;SDS011;55953;51.650;-0.522;2023-04-06T03:10:41;7.70;;;4.20;;
68910;SDS011;55953;51.650;-0.522;2023-04-06T03:13:09;5.60;;;3.70;;
68910;SDS011;55953;51.650;-0.522;2023-04-06T03:15:49;6.20;;;4.00;;
68910;SDS011;55953;51.650;-0.522;2023-04-06T03:18:22;5.80;;;4.00;;
68910;SDS011;55953;51.650;-0.522;2023-04-06T03:20:51;5.90;;;4.00;;
68910;SDS011;55953;51.650;-0.522;2023-04-06T03:23:26;6.30;;;4.60;;
68910;SDS011;55953;51.650;-0.522;2023-04-06T03:25:57;5.70;;;3.70;;
68910;SDS011;55953;51.650;-0.522;2023-04-06T03:28:25;6.10;;;4.10;;
68910;SDS011;55953;51.650;-0.522;2023-04-06T03:30:59;5.80;;;4.10;;
68910;SDS011;55953;51.650;-0.522;2023-04-06T03:33:56;6.40;;;4.00;;
68910;SDS011;55953;51.650;-0.522;2023-04-06T03:36:27;6.40;;;4.30;;
68910;SDS011;55953;51.650;-0.522;2023-04-06T03:38:56;6.10;;;4.00;;
68910;SDS011;55953;51.650;-0.522;2023-04-06T03:41:24;6.60;;;4.30;;
68910;SDS011;55953;51.650;-0.522;2023-04-06T03:44:00;6.40;;;4.40;;
68910;SDS011;55953;51.650;-0.522;2023-04-06T03:46:28;6.20;;;4.10;;
68910;SDS011;55953;51.650;-0.522;2023-04-06T03:48:57;5.70;;;4.20;;
68910;SDS011;55953;51.650;-0.522;2023-04-06T03:51:26;6.10;;;4.40;;
68910;SDS011;55953;51.650;-0.522;2023-04-06T03:53:55;7.40;;;4.60;;
68910;SDS011;55953;51.650;-0.522;2023-04-06T03:56:23;5.40;;;4.00;;
68910;SDS011;55953;51.650;-0.522;2023-04-06T03:58:50;7.20;;;4.60;;
68910;SDS011;55953;51.650;-0.522;2023-04-06T04:01:20;5.90;;;4.10;;
68910;SDS011;55953;51.650;-0.522;2023-04-06T04:03:48;6.20;;;4.40;;
68910;SDS011;55953;51.650;-0.522;2023-04-06T04:06:18;8.90;;;4.60;;
68910;SDS011;55953;51.650;-0.522;2023-04-06T04:08:46;6.30;;;4.70;;
68910;SDS011;55953;51.650;-0.522;2023-04-06T04:11:14;8.40;;;5.10;;
68910;SDS011;55953;51.650;-0.522;2023-04-06T04:13:45;6.50;;;4.20;;
68910;SDS011;55953;51.650;-0.522;2023-04-06T04:16:13;5.70;;;4.30;;
68910;SDS011;55953;51.650;-0.522;2023-04-06T04:18:42;7.90;;;5.00;;
68910;SDS011;55953;51.650;-0.522;2023-04-06T04:21:11;6.70;;;4.80;;
68910;SDS011;55953;51.650;-0.522;2023-04-06T04:23:39;7.10;;;4.70;;
68910;SDS011;55953;51.650;-0.522;2023-04-06T04:26:07;7.40;;;4.50;;
68910;SDS011;55953;51.650;-0.522;2023-04-06T04:28:34;7.80;;;5.20;;
68910;SDS011;55953;51.650;-0.522;2023-04-06T04:31:02;6.80;;;4.90;;
68910;SDS011;55953;51.650;-0.522;2023-04-06T04:33:31;7.30;;;5.10;;
68910;SDS011;55953;51.650;-0.522;2023-04-06T04:36:01;6.40;;;4.80;;
68910;SDS011;55953;51.650;-0.522;2023-04-06T04:38:32;6.40;;;4.50;;
68910;SDS011;55953;51.650;-0.522;2023-04-06T04:41:00;7.60;;;4.80;;
68910;SDS011;55953;51.650;-0.522;2023-04-06T04:43:29;6.20;;;4.20;;
68910;SDS011;55953;51.650;-0.522;2023-04-06T04:46:00;7.30;;;4.40;;
68910;SDS011;55953;51.650;-0.522;2023-04-06T04:48:39;6.10;;;4.20;;
68910;SDS011;55953;51.650;-0.522;2023-04-06T04:51:08;6.10;;;4.30;;
68910;SDS011;55953;51.650;-0.522;2023-04-06T04:53:47;5.60;;;4.40;;
68910;SDS011;55953;51.650;-0.522;2023-04-06T04:56:21;5.30;;;3.90;;
68910;SDS011;55953;51.650;-0.522;2023-04-06T04:58:52;6.10;;;4.20;;
68910;SDS011;55953;51.650;-0.522;2023-04-06T05:01:20;7.10;;;3.80;;
68910;SDS011;55953;51.650;-0.522;2023-04-06T05:03:48;5.40;;;3.70;;
68910;SDS011;55953;51.650;-0.522;2023-04-06T05:06:17;4.90;;;3.60;;
68910;SDS011;55953;51.650;-0.522;2023-04-06T05:08:46;6.50;;;4.00;;
68910;SDS011;55953;51.650;-0.522;2023-04-06T05:11:14;6.70;;;4.30;;
68910;SDS011;55953;51.650;-0.522;2023-04-06T05:13:45;5.40;;;4.00;;
68910;SDS011;55953;51.650;-0.522;2023-04-06T05:16:17;6.30;;;4.50;;
68910;SDS011;55953;51.650;-0.522;2023-04-06T05:18:45;5.70;;;4.00;;
68910;SDS011;55953;51.650;-0.522;2023-04-06T05:21:13;5.90;;;4.30;;
68910;SDS011;55953;51.650;-0.522;2023-04-06T05:23:51;5.10;;;3.80;;
68910;SDS011;55953;51.650;-0.522;2023-04-06T05:26:19;5.80;;;4.00;;
68910;SDS011;55953;51.650;-0.522;2023-04-06T05:28:47;6.30;;;4.20;;
68910;SDS011;55953;51.650;-0.522;2023-04-06T05:31:16;5.80;;;3.90;;
68910;SDS011;55953;51.650;-0.522;2023-04-06T05:33:47;6.10;;;4.20;;
68910;SDS011;55953;51.650;-0.522;2023-04-06T05:36:17;5.90;;;4.10;;
68910;SDS011;55953;51.650;-0.522;2023-04-06T05:38:46;6.70;;;4.10;;
68910;SDS011;55953;51.650;-0.522;2023-04-06T05:41:33;7.10;;;4.60;;
68910;SDS011;55953;51.650;-0.522;2023-04-06T05:44:01;6.30;;;5.00;;
68910;SDS011;55953;51.650;-0.522;2023-04-06T05:46:30;6.80;;;4.70;;
68910;SDS011;55953;51.650;-0.522;2023-04-06T05:48:59;8.10;;;4.80;;
68910;SDS011;55953;51.650;-0.522;2023-04-06T05:51:30;7.00;;;4.70;;
68910;SDS011;55953;51.650;-0.522;2023-04-06T05:53:57;7.80;;;5.20;;
68910;SDS011;55953;51.650;-0.522;2023-04-06T05:56:26;7.10;;;4.70;;
68910;SDS011;55953;51.650;-0.522;2023-04-06T05:58:54;7.60;;;5.20;;
68910;SDS011;55953;51.650;-0.522;2023-04-06T06:01:26;7.60;;;4.80;;
68910;SDS011;55953;51.650;-0.522;2023-04-06T06:03:54;7.50;;;4.80;;
68910;SDS011;55953;51.650;-0.522;2023-04-06T06:06:24;6.60;;;4.70;;
68910;SDS011;55953;51.650;-0.522;2023-04-06T06:09:18;8.00;;;5.30;;
68910;SDS011;55953;51.650;-0.522;2023-04-06T06:12:00;6.80;;;4.80;;
68910;SDS011;55953;51.650;-0.522;2023-04-06T06:14:28;7.20;;;5.20;;
68910;SDS011;55953;51.650;-0.522;2023-04-06T06:16:57;5.90;;;4.20;;
68910;SDS011;55953;51.650;-0.522;2023-04-06T06:19:25;5.30;;;4.00;;
68910;SDS011;55953;51.650;-0.522;2023-04-06T06:21:56;5.90;;;4.20;;
68910;SDS011;55953;51.650;-0.522;2023-04-06T06:24:24;5.90;;;4.10;;
68910;SDS011;55953;51.650;-0.522;2023-04-06T06:26:53;7.90;;;4.20;;
68910;SDS011;55953;51.650;-0.522;2023-04-06T06:29:22;5.60;;;4.20;;
68910;SDS011;55953;51.650;-0.522;2023-04-06T06:31:51;5.80;;;4.00;;
68910;SDS011;55953;51.650;-0.522;2023-04-06T06:34:19;32.60;;;15.70;;
68910;SDS011;55953;51.650;-0.522;2023-04-06T06:36:48;97.20;;;43.10;;
68910;SDS011;55953;51.650;-0.522;2023-04-06T06:39:19;104.90;;;49.10;;
68910;SDS011;55953;51.650;-0.522;2023-04-06T06:41:48;91.70;;;44.90;;
68910;SDS011;55953;51.650;-0.522;2023-04-06T06:44:17;73.90;;;38.10;;
68910;SDS011;55953;51.650;-0.522;2023-04-06T06:46:45;43.40;;;24.30;;
68910;SDS011;55953;51.650;-0.522;2023-04-06T06:49:13;46.00;;;27.30;;
68910;SDS011;55953;51.650;-0.522;2023-04-06T06:51:41;23.20;;;14.60;;
68910;SDS011;55953;51.650;-0.522;2023-04-06T06:54:09;19.20;;;13.40;;
68910;SDS011;55953;51.650;-0.522;2023-04-06T06:56:38;21.30;;;13.00;;
68910;SDS011;55953;51.650;-0.522;2023-04-06T06:59:06;11.60;;;7.30;;
68910;SDS011;55953;51.650;-0.522;2023-04-06T07:01:36;9.40;;;6.70;;
68910;SDS011;55953;51.650;-0.522;2023-04-06T07:04:04;9.70;;;6.00;;
68910;SDS011;55953;51.650;-0.522;2023-04-06T07:06:32;8.90;;;4.40;;
68910;SDS011;55953;51.650;-0.522;2023-04-06T07:09:00;6.40;;;4.20;;
68910;SDS011;55953;51.650;-0.522;2023-04-06T07:11:30;5.20;;;3.50;;
68910;SDS011;55953;51.650;-0.522;2023-04-06T07:13:58;5.20;;;3.80;;
68910;SDS011;55953;51.650;-0.522;2023-04-06T07:16:26;5.00;;;3.50;;
68910;SDS011;55953;51.650;-0.522;2023-04-06T07:18:55;6.70;;;4.10;;
68910;SDS011;55953;51.650;-0.522;2023-04-06T07:21:23;4.90;;;3.70;;
68910;SDS011;55953;51.650;-0.522;2023-04-06T07:23:52;5.30;;;3.70;;
68910;SDS011;55953;51.650;-0.522;2023-04-06T07:26:19;5.90;;;3.50;;
68910;SDS011;55953;51.650;-0.522;2023-04-06T07:28:47;5.30;;;3.30;;
68910;SDS011;55953;51.650;-0.522;2023-04-06T07:31:15;4.70;;;3.20;;
68910;SDS011;55953;51.650;-0.522;2023-04-06T07:33:44;10.60;;;4.50;;
68910;SDS011;55953;51.650;-0.522;2023-04-06T07:36:12;7.60;;;3.70;;
68910;SDS011;55953;51.650;-0.522;2023-04-06T07:38:40;6.70;;;3.50;;
68910;SDS011;55953;51.650;-0.522;2023-04-06T07:41:09;7.70;;;3.30;;
68910;SDS011;55953;51.650;-0.522;2023-04-06T07:43:37;6.00;;;3.40;;
68910;SDS011;55953;51.650;-0.522;2023-04-06T07:46:07;7.30;;;3.30;;
68910;SDS011;55953;51.650;-0.522;2023-04-06T07:48:35;6.00;;;2.90;;
68910;SDS011;55953;51.650;-0.522;2023-04-06T07:51:05;6.30;;;3.10;;
68910;SDS011;55953;51.650;-0.522;2023-04-06T07:53:36;6.60;;;3.20;;
68910;SDS011;55953;51.650;-0.522;2023-04-06T07:56:04;6.60;;;2.90;;
68910;SDS011;55953;51.650;-0.522;2023-04-06T07:58:32;11.40;;;3.10;;
68910;SDS011;55953;51.650;-0.522;2023-04-06T08:01:01;6.50;;;3.10;;
68910;SDS011;55953;51.650;-0.522;2023-04-06T08:03:29;6.60;;;2.40;;
68910;SDS011;55953;51.650;-0.522;2023-04-06T08:05:58;7.20;;;2.80;;
68910;SDS011;55953;51.650;-0.522;2023-04-06T08:08:26;4.70;;;2.50;;
68910;SDS011;55953;51.650;-0.522;2023-04-06T08:10:54;6.80;;;2.40;;
68910;SDS011;55953;51.650;-0.522;2023-04-06T08:13:22;5.90;;;2.40;;
68910;SDS011;55953;51.650;-0.522;2023-04-06T08:15:50;7.40;;;2.50;;
68910;SDS011;55953;51.650;-0.522;2023-04-06T08:18:18;8.30;;;3.10;;
68910;SDS011;55953;51.650;-0.522;2023-04-06T08:20:46;5.50;;;2.50;;
68910;SDS011;55953;51.650;-0.522;2023-04-06T08:23:14;7.30;;;2.70;;
68910;SDS011;55953;51.650;-0.522;2023-04-06T08:25:43;10.70;;;2.40;;
68910;SDS011;55953;51.650;-0.522;2023-04-06T08:28:11;17.10;;;3.70;;
68910;SDS011;55953;51.650;-0.522;2023-04-06T08:30:42;8.30;;;2.30;;
68910;SDS011;55953;51.650;-0.522;2023-04-06T08:33:10;21.60;;;3.90;;
68910;SDS011;55953;51.650;-0.522;2023-04-06T08:35:38;7.70;;;3.00;;
68910;SDS011;55953;51.650;-0.522;2023-04-06T08:38:06;7.30;;;2.30;;
68910;SDS011;55953;51.650;-0.522;2023-04-06T08:40:36;8.60;;;2.10;;
68910;SDS011;55953;51.650;-0.522;2023-04-06T08:43:11;4.70;;;2.00;;
68910;SDS011;55953;51.650;-0.522;2023-04-06T08:45:41;6.00;;;2.20;;
68910;SDS011;55953;51.650;-0.522;2023-04-06T08:48:11;7.20;;;2.50;;
68910;SDS011;55953;51.650;-0.522;2023-04-06T08:50:40;6.90;;;2.40;;
68910;SDS011;55953;51.650;-0.522;2023-04-06T08:53:11;5.70;;;1.80;;
68910;SDS011;55953;51.650;-0.522;2023-04-06T08:55:39;7.60;;;1.90;;
68910;SDS011;55953;51.650;-0.522;2023-04-06T08:58:07;5.70;;;2.00;;
68910;SDS011;55953;51.650;-0.522;2023-04-06T09:00:39;7.30;;;2.40;;
68910;SDS011;55953;51.650;-0.522;2023-04-06T09:03:08;34.90;;;5.40;;
68910;SDS011;55953;51.650;-0.522;2023-04-06T09:05:38;8.20;;;2.90;;
68910;SDS011;55953;51.650;-0.522;2023-04-06T09:08:06;10.50;;;4.40;;
68910;SDS011;55953;51.650;-0.522;2023-04-06T09:10:34;7.80;;;3.20;;
68910;SDS011;55953;51.650;-0.522;2023-04-06T09:13:04;7.80;;;3.70;;
68910;SDS011;55953;51.650;-0.522;2023-04-06T09:15:33;5.50;;;3.40;;
68910;SDS011;55953;51.650;-0.522;2023-04-06T09:18:01;6.50;;;1.70;;
68910;SDS011;55953;51.650;-0.522;2023-04-06T09:20:30;4.10;;;1.50;;
68910;SDS011;55953;51.650;-0.522;2023-04-06T09:22:58;5.00;;;1.50;;
68910;SDS011;55953;51.650;-0.522;2023-04-06T09:25:26;4.40;;;1.40;;
68910;SDS011;55953;51.650;-0.522;2023-04-06T09:27:59;3.00;;;1.50;;
68910;SDS011;55953;51.650;-0.522;2023-04-06T09:30:29;5.50;;;1.50;;
68910;SDS011;55953;51.650;-0.522;2023-04-06T09:32:57;2.30;;;1.20;;
68910;SDS011;55953;51.650;-0.522;2023-04-06T09:35:27;4.00;;;1.50;;
68910;SDS011;55953;51.650;-0.522;2023-04-06T09:37:57;4.90;;;1.40;;
68910;SDS011;55953;51.650;-0.522;2023-04-06T09:40:25;3.20;;;1.00;;
68910;SDS011;55953;51.650;-0.522;2023-04-06T09:42:53;3.60;;;1.20;;
68910;SDS011;55953;51.650;-0.522;2023-04-06T09:45:26;3.20;;;1.10;;
68910;SDS011;55953;51.650;-0.522;2023-04-06T09:47:57;2.70;;;1.30;;
68910;SDS011;55953;51.650;-0.522;2023-04-06T09:50:27;2.00;;;0.90;;
68910;SDS011;55953;51.650;-0.522;2023-04-06T09:52:57;1.90;;;0.90;;
68910;SDS011;55953;51.650;-0.522;2023-04-06T09:55:40;4.50;;;1.30;;
68910;SDS011;55953;51.650;-0.522;2023-04-06T09:58:13;2.80;;;0.90;;
68910;SDS011;55953;51.650;-0.522;2023-04-06T10:00:47;2.40;;;1.00;;
68910;SDS011;55953;51.650;-0.522;2023-04-06T10:06:10;3.00;;;0.90;;
68910;SDS011;55953;51.650;-0.522;2023-04-06T10:08:42;1.00;;;0.70;;
68910;SDS011;55953;51.650;-0.522;2023-04-06T10:11:16;1.60;;;0.70;;
68910;SDS011;55953;51.650;-0.522;2023-04-06T10:13:45;2.60;;;0.80;;
68910;SDS011;55953;51.650;-0.522;2023-04-06T10:16:15;3.30;;;1.10;;
68910;SDS011;55953;51.650;-0.522;2023-04-06T10:18:48;1.60;;;0.90;;
68910;SDS011;55953;51.650;-0.522;2023-04-06T10:21:24;3.20;;;0.90;;
68910;SDS011;55953;51.650;-0.522;2023-04-06T10:23:59;1.70;;;0.80;;
68910;SDS011;55953;51.650;-0.522;2023-04-06T10:26:28;2.00;;;0.70;;
68910;SDS011;55953;51.650;-0.522;2023-04-06T10:29:03;1.90;;;0.90;;
68910;SDS011;55953;51.650;-0.522;2023-04-06T10:31:32;3.60;;;1.10;;
68910;SDS011;55953;51.650;-0.522;2023-04-06T10:34:01;2.90;;;1.00;;
68910;SDS011;55953;51.650;-0.522;2023-04-06T10:36:33;4.50;;;1.10;;
68910;SDS011;55953;51.650;-0.522;2023-04-06T10:39:04;2.80;;;1.30;;
68910;SDS011;55953;51.650;-0.522;2023-04-06T10:44:03;1.80;;;1.00;;
68910;SDS011;55953;51.650;-0.522;2023-04-06T10:46:32;3.10;;;1.00;;
68910;SDS011;55953;51.650;-0.522;2023-04-06T10:49:11;2.20;;;1.00;;
68910;SDS011;55953;51.650;-0.522;2023-04-06T10:51:39;2.10;;;1.10;;
68910;SDS011;55953;51.650;-0.522;2023-04-06T10:54:09;2.60;;;1.00;;
68910;SDS011;55953;51.650;-0.522;2023-04-06T10:56:38;2.60;;;0.90;;
68910;SDS011;55953;51.650;-0.522;2023-04-06T10:59:07;1.60;;;0.80;;
68910;SDS011;55953;51.650;-0.522;2023-04-06T11:01:35;3.00;;;1.00;;
68910;SDS011;55953;51.650;-0.522;2023-04-06T11:04:03;1.50;;;0.90;;
68910;SDS011;55953;51.650;-0.522;2023-04-06T11:06:31;3.50;;;1.00;;
68910;SDS011;55953;51.650;-0.522;2023-04-06T11:09:00;2.60;;;1.00;;
68910;SDS011;55953;51.650;-0.522;2023-04-06T11:11:28;3.00;;;1.10;;
68910;SDS011;55953;51.650;-0.522;2023-04-06T11:13:59;4.40;;;1.20;;
68910;SDS011;55953;51.650;-0.522;2023-04-06T11:16:30;4.50;;;1.30;;
68910;SDS011;55953;51.650;-0.522;2023-04-06T11:19:01;1.40;;;0.70;;
68910;SDS011;55953;51.650;-0.522;2023-04-06T11:21:48;2.40;;;1.00;;
68910;SDS011;55953;51.650;-0.522;2023-04-06T11:24:21;2.00;;;0.70;;
68910;SDS011;55953;51.650;-0.522;2023-04-06T11:26:53;3.00;;;1.20;;
68910;SDS011;55953;51.650;-0.522;2023-04-06T11:29:27;3.70;;;1.00;;
68910;SDS011;55953;51.650;-0.522;2023-04-06T11:32:04;3.10;;;1.00;;
68910;SDS011;55953;51.650;-0.522;2023-04-06T11:34:36;3.10;;;0.90;;
68910;SDS011;55953;51.650;-0.522;2023-04-06T11:37:10;2.70;;;1.00;;
68910;SDS011;55953;51.650;-0.522;2023-04-06T11:39:46;2.30;;;0.90;;
68910;SDS011;55953;51.650;-0.522;2023-04-06T11:42:22;1.60;;;0.80;;
68910;SDS011;55953;51.650;-0.522;2023-04-06T11:45:01;2.70;;;0.90;;
68910;SDS011;55953;51.650;-0.522;2023-04-06T11:47:34;2.80;;;0.90;;
68910;SDS011;55953;51.650;-0.522;2023-04-06T11:50:07;2.20;;;0.90;;
68910;SDS011;55953;51.650;-0.522;2023-04-06T11:52:41;3.00;;;0.80;;
68910;SDS011;55953;51.650;-0.522;2023-04-06T11:55:14;2.50;;;1.00;;
68910;SDS011;55953;51.650;-0.522;2023-04-06T11:57:44;6.30;;;1.40;;
68910;SDS011;55953;51.650;-0.522;2023-04-06T12:00:13;4.30;;;0.90;;
68910;SDS011;55953;51.650;-0.522;2023-04-06T12:02:45;3.20;;;1.00;;
68910;SDS011;55953;51.650;-0.522;2023-04-06T12:05:14;3.30;;;0.80;;
68910;SDS011;55953;51.650;-0.522;2023-04-06T12:07:42;3.80;;;1.20;;
68910;SDS011;55953;51.650;-0.522;2023-04-06T12:10:10;3.80;;;1.20;;
68910;SDS011;55953;51.650;-0.522;2023-04-06T12:12:38;3.40;;;0.90;;
68910;SDS011;55953;51.650;-0.522;2023-04-06T12:15:07;3.70;;;1.00;;
68910;SDS011;55953;51.650;-0.522;2023-04-06T12:17:35;3.20;;;1.00;;
68910;SDS011;55953;51.650;-0.522;2023-04-06T12:20:05;3.60;;;1.30;;
68910;SDS011;55953;51.650;-0.522;2023-04-06T12:22:52;4.20;;;1.10;;
68910;SDS011;55953;51.650;-0.522;2023-04-06T12:25:20;2.90;;;1.00;;
68910;SDS011;55953;51.650;-0.522;2023-04-06T12:27:48;3.10;;;1.10;;
68910;SDS011;55953;51.650;-0.522;2023-04-06T12:30:16;2.60;;;0.90;;
68910;SDS011;55953;51.650;-0.522;2023-04-06T12:32:44;2.40;;;1.10;;
68910;SDS011;55953;51.650;-0.522;2023-04-06T12:35:16;3.50;;;1.20;;
68910;SDS011;55953;51.650;-0.522;2023-04-06T12:37:44;2.60;;;0.90;;
68910;SDS011;55953;51.650;-0.522;2023-04-06T12:40:12;2.00;;;0.80;;
68910;SDS011;55953;51.650;-0.522;2023-04-06T12:42:42;1.60;;;0.90;;
68910;SDS011;55953;51.650;-0.522;2023-04-06T12:45:11;2.90;;;0.90;;
68910;SDS011;55953;51.650;-0.522;2023-04-06T12:47:39;4.00;;;1.00;;
68910;SDS011;55953;51.650;-0.522;2023-04-06T12:50:07;1.80;;;0.80;;
68910;SDS011;55953;51.650;-0.522;2023-04-06T12:52:35;3.70;;;0.90;;
68910;SDS011;55953;51.650;-0.522;2023-04-06T12:55:04;3.70;;;1.00;;
68910;SDS011;55953;51.650;-0.522;2023-04-06T12:57:33;1.80;;;0.80;;
68910;SDS011;55953;51.650;-0.522;2023-04-06T13:00:01;3.30;;;0.90;;
68910;SDS011;55953;51.650;-0.522;2023-04-06T13:02:32;1.30;;;0.70;;
68910;SDS011;55953;51.650;-0.522;2023-04-06T13:05:01;3.80;;;0.90;;
68910;SDS011;55953;51.650;-0.522;2023-04-06T13:07:29;2.50;;;0.80;;
68910;SDS011;55953;51.650;-0.522;2023-04-06T13:09:57;1.80;;;0.80;;
68910;SDS011;55953;51.650;-0.522;2023-04-06T13:12:25;3.40;;;0.90;;
68910;SDS011;55953;51.650;-0.522;2023-04-06T13:14:53;1.50;;;0.80;;
68910;SDS011;55953;51.650;-0.522;2023-04-06T13:17:21;3.60;;;1.00;;
68910;SDS011;55953;51.650;-0.522;2023-04-06T13:19:50;4.90;;;1.30;;
68910;SDS011;55953;51.650;-0.522;2023-04-06T13:22:18;4.20;;;1.20;;
68910;SDS011;55953;51.650;-0.522;2023-04-06T13:24:45;3.40;;;1.00;;
68910;SDS011;55953;51.650;-0.522;2023-04-06T13:27:13;4.20;;;1.10;;
68910;SDS011;55953;51.650;-0.522;2023-04-06T13:29:42;4.10;;;2.20;;
68910;SDS011;55953;51.650;-0.522;2023-04-06T13:32:10;2.70;;;1.00;;
68910;SDS011;55953;51.650;-0.522;2023-04-06T13:34:38;2.40;;;0.90;;
68910;SDS011;55953;51.650;-0.522;2023-04-06T13:37:06;3.60;;;0.90;;
68910;SDS011;55953;51.650;-0.522;2023-04-06T13:39:34;4.30;;;1.10;;
68910;SDS011;55953;51.650;-0.522;2023-04-06T13:42:02;2.70;;;0.90;;
68910;SDS011;55953;51.650;-0.522;2023-04-06T13:44:30;2.80;;;0.80;;
68910;SDS011;55953;51.650;-0.522;2023-04-06T13:46:58;3.10;;;0.70;;
68910;SDS011;55953;51.650;-0.522;2023-04-06T13:49:27;2.70;;;0.80;;
68910;SDS011;55953;51.650;-0.522;2023-04-06T13:51:55;3.60;;;1.50;;
68910;SDS011;55953;51.650;-0.522;2023-04-06T13:54:22;3.90;;;1.30;;
68910;SDS011;55953;51.650;-0.522;2023-04-06T13:56:51;5.40;;;1.40;;
68910;SDS011;55953;51.650;-0.522;2023-04-06T13:59:19;4.60;;;2.30;;
68910;SDS011;55953;51.650;-0.522;2023-04-06T14:01:47;4.10;;;1.40;;
68910;SDS011;55953;51.650;-0.522;2023-04-06T14:04:16;2.30;;;0.90;;
68910;SDS011;55953;51.650;-0.522;2023-04-06T14:06:45;3.00;;;0.80;;
68910;SDS011;55953;51.650;-0.522;2023-04-06T14:09:13;2.40;;;0.80;;
68910;SDS011;55953;51.650;-0.522;2023-04-06T14:11:41;2.10;;;0.80;;
68910;SDS011;55953;51.650;-0.522;2023-04-06T14:14:09;2.70;;;0.90;;
68910;SDS011;55953;51.650;-0.522;2023-04-06T14:16:37;3.30;;;0.80;;
68910;SDS011;55953;51.650;-0.522;2023-04-06T14:19:05;2.40;;;1.10;;
68910;SDS011;55953;51.650;-0.522;2023-04-06T14:21:33;4.00;;;0.90;;
68910;SDS011;55953;51.650;-0.522;2023-04-06T14:24:01;10.50;;;4.90;;
68910;SDS011;55953;51.650;-0.522;2023-04-06T14:26:29;33.80;;;21.10;;
68910;SDS011;55953;51.650;-0.522;2023-04-06T14:28:58;6.10;;;4.10;;
68910;SDS011;55953;51.650;-0.522;2023-04-06T14:31:28;8.10;;;3.50;;
68910;SDS011;55953;51.650;-0.522;2023-04-06T14:33:56;3.10;;;2.00;;
68910;SDS011;55953;51.650;-0.522;2023-04-06T14:36:24;10.70;;;9.80;;
68910;SDS011;55953;51.650;-0.522;2023-04-06T14:38:57;3.20;;;1.60;;
68910;SDS011;55953;51.650;-0.522;2023-04-06T14:41:25;6.40;;;3.80;;
68910;SDS011;55953;51.650;-0.522;2023-04-06T14:43:53;3.10;;;2.00;;
68910;SDS011;55953;51.650;-0.522;2023-04-06T14:46:21;3.00;;;0.90;;
68910;SDS011;55953;51.650;-0.522;2023-04-06T14:48:49;3.70;;;2.40;;
68910;SDS011;55953;51.650;-0.522;2023-04-06T14:51:18;1.80;;;0.80;;
68910;SDS011;55953;51.650;-0.522;2023-04-06T14:53:46;4.10;;;1.30;;
68910;SDS011;55953;51.650;-0.522;2023-04-06T14:56:21;2.70;;;1.10;;
68910;SDS011;55953;51.650;-0.522;2023-04-06T14:58:51;2.70;;;1.80;;